Terminal Aerodrome Forecast
Issued by NWS

Home | Current Version | Previous Version | Text Only | Print | Product List | Glossary On
Versions: 1 2 3 4 5 6 7 8 9 10 11 12 13
000
FTUS45 KRIW 281100
TAFCOD
TAF
KCOD 281120Z 2812/2912 VRB05KT P6SM SCT250
     FM281800 05007KT P6SM SCT120 BKN250
     FM282200 03008KT P6SM VCTS SCT080CB BKN150
     FM290300 VRB05KT P6SM VCSH BKN100
      AMD LTD TO CLD VIS AND WIND=

USA.gov is the U.S. government's official web portal to all federal, state and local government web resources and services.